Time;durP1;ratioP1;P1;durP2;ratioP2;P2;SDS_P1;SDS_P2;PMS_P1;PMS_P2;Temp;Humidity;BMP_temperature;BMP_pressure;BME280_temperature;BME280_humidity;BME280_pressure;Samples;Min_cycle;Max_cycle;Signal;HPM_P1;HPM_P2
2021/01/26 00:46:31;;;;;;;;;43.25;35.75;;;;;23.58;54.23;99206.31;5931398;23;10515;-68
2021/01/26 00:49:08;;;;;;;;;38.50;34.50;;;;;23.56;54.59;99211.25;4961076;23;10969;-68
2021/01/26 00:51:37;;;;;;;;;42.50;35.75;;;;;23.56;54.31;99213.94;4953560;28;10995;-68
2021/01/26 00:54:05;;;;;;;;;41.50;34.50;;;;;23.38;54.25;99197.28;4939562;29;10730;-71
2021/01/26 00:56:34;;;;;;;;;46.75;39.25;;;;;23.51;52.21;99222.22;4943427;28;10838;-71
2021/01/26 00:59:05;;;;;;;;;50.25;40.50;;;;;23.43;52.35;99224.72;4950809;28;11159;-71
2021/01/26 01:01:33;;;;;;;;;55.00;42.00;;;;;23.32;52.05;99218.25;4951973;28;11194;-70
2021/01/26 01:04:01;;;;;;;;;53.75;40.50;;;;;23.33;52.20;99232.50;4952199;28;11630;-70
2021/01/26 01:06:30;;;;;;;;;46.50;40.00;;;;;23.25;51.66;99226.13;4949199;28;11410;-70
2021/01/26 01:08:58;;;;;;;;;50.50;41.00;;;;;23.19;52.31;99221.31;4952452;28;11275;-73
2021/01/26 01:11:28;;;;;;;;;53.25;38.50;;;;;23.25;53.03;99242.28;4952219;28;11070;-68
2021/01/26 01:13:57;;;;;;;;;41.75;36.50;;;;;23.24;52.11;99237.22;4950535;28;11408;-70
2021/01/26 01:16:25;;;;;;;;;55.50;40.50;;;;;23.28;55.02;99248.88;4952534;28;12079;-69
2021/01/26 01:18:53;;;;;;;;;53.00;39.00;;;;;23.24;53.07;99246.09;4952637;28;11527;-69
2021/01/26 01:21:21;;;;;;;;;40.75;32.50;;;;;23.30;52.59;99247.41;4951893;28;11067;-70
2021/01/26 01:23:49;;;;;;;;;45.00;37.75;;;;;23.31;52.24;99251.69;4950817;28;10823;-71
2021/01/26 01:26:17;;;;;;;;;37.75;32.75;;;;;23.36;52.60;99254.16;4952276;28;10702;-72
2021/01/26 01:28:45;;;;;;;;;43.75;36.75;;;;;23.30;55.60;99252.81;4952900;28;10924;-71
2021/01/26 01:31:14;;;;;;;;;44.25;34.50;;;;;23.36;54.70;99264.13;4950691;28;10652;-69
2021/01/26 01:33:42;;;;;;;;;40.50;35.25;;;;;23.44;54.39;99263.97;4943335;28;10481;-71
2021/01/26 01:36:10;;;;;;;;;49.75;35.00;;;;;23.44;54.98;99261.28;4943634;28;10937;-70
2021/01/26 01:38:38;;;;;;;;;35.25;29.75;;;;;23.51;53.54;99271.47;4938518;28;10862;-69
2021/01/26 01:41:07;;;;;;;;;36.75;29.50;;;;;23.47;53.96;99254.44;4948552;28;10572;-70
2021/01/26 01:43:35;;;;;;;;;31.00;21.50;;;;;23.59;51.58;99265.22;4945508;28;10731;-70
2021/01/26 01:46:12;;;;;;;;;28.50;25.25;;;;;23.62;52.93;99269.91;4941340;29;10341;-70
2021/01/26 01:48:42;;;;;;;;;27.25;25.00;;;;;23.52;51.79;99256.09;4941249;28;10152;-71
2021/01/26 01:51:20;;;;;;;;;25.25;19.00;;;;;23.69;51.25;99277.44;4942634;28;10078;-70
2021/01/26 01:53:55;;;;;;;;;24.00;22.75;;;;;23.74;53.90;99282.56;4943139;29;10153;-75
2021/01/26 01:56:31;;;;;;;;;26.25;23.75;;;;;23.79;51.49;99276.94;4952853;29;10867;-69
2021/01/26 01:59:07;;;;;;;;;16.75;14.75;;;;;23.83;51.28;99282.44;4953834;28;10263;-68
2021/01/26 02:01:35;;;;;;;;;26.25;24.00;;;;;23.88;51.39;99282.19;4952223;28;10242;-69
2021/01/26 02:04:15;;;;;;;;;14.50;11.25;;;;;23.88;52.95;99282.19;4951113;29;9907;-69
2021/01/26 02:06:45;;;;;;;;;10.50;6.00;;;;;23.94;51.25;99283.53;4952720;28;10106;-69
2021/01/26 02:09:24;;;;;;;;;20.50;19.50;;;;;23.97;51.34;99290.94;4953362;28;9988;-68
2021/01/26 02:11:53;;;;;;;;;23.00;19.00;;;;;23.98;51.79;99287.91;4953014;28;9961;-70
2021/01/26 02:14:21;;;;;;;;;21.00;21.00;;;;;23.97;51.46;99286.31;4953398;29;9902;-73
2021/01/26 02:17:19;;;;;;;;;19.50;15.50;;;;;23.99;51.03;99288.69;4953431;29;10096;-70
2021/01/26 02:20:19;;;;;;;;;24.75;18.75;;;;;23.93;51.20;99281.97;4950446;28;9800;-72
2021/01/26 02:23:19;;;;;;;;;18.25;17.00;;;;;23.98;51.69;99292.50;4951516;28;9809;-71
2021/01/26 02:26:20;;;;;;;;;17.50;13.00;;;;;24.02;51.17;99280.69;4949681;29;9983;-70
2021/01/26 02:29:23;;;;;;;;;14.50;9.25;;;;;24.04;52.83;99294.63;4951135;28;9884;-69
2021/01/26 02:32:23;;;;;;;;;20.00;17.50;;;;;24.08;52.16;99289.31;4951425;28;9884;-70
2021/01/26 02:35:18;;;;;;;;;23.00;16.25;;;;;24.14;52.33;99296.03;4954550;28;9727;-72
2021/01/26 02:38:17;;;;;;;;;20.50;17.00;;;;;24.21;52.17;99290.84;4948785;28;9652;-71
2021/01/26 02:40:58;;;;;;;;;19.50;13.75;;;;;24.29;51.79;99291.84;4949922;28;9736;-71
2021/01/26 02:43:42;;;;;;;;;17.75;17.00;;;;;24.37;51.90;99290.91;4950862;28;9733;-71
2021/01/26 02:46:36;;;;;;;;;18.50;17.50;;;;;24.44;52.34;99290.31;4950633;28;9528;-71
2021/01/26 02:49:36;;;;;;;;;14.50;14.50;;;;;24.54;51.30;99292.50;4946805;28;9788;-70
2021/01/26 02:52:27;;;;;;;;;15.25;12.75;;;;;24.60;51.06;99289.22;4949659;28;9890;-70
2021/01/26 02:55:21;;;;;;;;;17.00;17.00;;;;;24.66;50.51;99290.53;4949360;28;10498;-71
2021/01/26 02:57:56;;;;;;;;;16.75;13.75;;;;;24.66;50.59;99287.03;4951566;28;9896;-71
2021/01/26 03:00:29;;;;;;;;;13.50;13.50;;;;;24.66;50.69;99282.44;4947943;28;9741;-71
2021/01/26 03:03:23;;;;;;;;;17.75;14.00;;;;;24.75;51.50;99287.63;4951292;28;9638;-72
2021/01/26 03:06:02;;;;;;;;;14.25;14.25;;;;;24.78;50.97;99278.84;4951306;28;9583;-72
2021/01/26 03:08:38;;;;;;;;;13.50;9.50;;;;;24.87;50.50;99287.56;4951698;28;9637;-72
2021/01/26 03:11:32;;;;;;;;;15.00;15.00;;;;;24.91;50.35;99283.03;4952060;28;9560;-71
2021/01/26 03:14:15;;;;;;;;;13.00;11.50;;;;;25.00;50.44;99290.97;4952382;28;9563;-72
2021/01/26 03:16:55;;;;;;;;;17.00;15.00;;;;;25.01;50.87;99270.94;4949263;28;9686;-72
2021/01/26 03:19:30;;;;;;;;;21.00;14.75;;;;;25.09;50.82;99280.00;4952011;28;9755;-72
2021/01/26 03:22:02;;;;;;;;;17.33;15.00;;;;;25.14;50.01;99280.53;4952026;28;9692;-71
2021/01/26 03:24:36;;;;;;;;;16.50;13.00;;;;;25.20;50.38;99272.94;4952294;28;9458;-69
2021/01/26 03:27:10;;;;;;;;;16.75;15.00;;;;;25.24;50.18;99269.19;4953860;28;9504;-73
2021/01/26 03:29:45;;;;;;;;;15.67;15.67;;;;;25.28;50.09;99255.75;4953054;28;9389;-71
2021/01/26 03:32:21;;;;;;;;;22.00;14.33;;;;;25.34;50.02;99255.13;4952382;28;10240;-73
2021/01/26 03:34:49;;;;;;;;;17.00;15.33;;;;;25.40;49.86;99258.34;4952800;28;9333;-70
2021/01/26 03:37:18;;;;;;;;;15.33;14.33;;;;;25.45;49.55;99249.97;4953954;28;9341;-71
2021/01/26 03:39:47;;;;;;;;;17.00;15.33;;;;;25.52;49.60;99247.41;4954254;28;9312;-70
2021/01/26 03:42:15;;;;;;;;;16.00;14.67;;;;;25.57;49.36;99249.06;4952391;28;10198;-69
2021/01/26 03:44:47;;;;;;;;;18.00;16.67;;;;;25.62;49.45;99254.19;4946065;28;10009;-69
2021/01/26 03:47:52;;;;;;;;;19.33;19.00;;;;;25.66;49.69;99239.66;4945789;28;9169;-68
2021/01/26 03:50:53;;;;;;;;;17.67;15.67;;;;;25.70;49.40;99239.72;4948286;28;9333;-73
2021/01/26 03:53:58;;;;;;;;;20.33;17.00;;;;;25.75;49.41;99234.03;4947844;28;9070;-71
2021/01/26 03:56:49;;;;;;;;;17.67;14.00;;;;;25.79;49.19;99232.19;4943882;28;9128;-70
2021/01/26 03:59:42;;;;;;;;;27.33;17.67;;;;;25.82;49.35;99236.09;4951814;28;10156;-70
2021/01/26 04:02:34;;;;;;;;;18.33;18.33;;;;;25.86;49.39;99243.13;4951634;28;9188;-70
2021/01/26 04:05:27;;;;;;;;;24.00;18.67;;;;;25.89;49.18;99225.44;4950977;28;9354;-70
2021/01/26 04:08:02;;;;;;;;;24.00;18.00;;;;;25.97;49.08;99233.31;4951557;28;9213;-71
2021/01/26 04:10:37;;;;;;;;;20.33;15.00;;;;;26.02;49.10;99222.19;4952050;28;9276;-72
2021/01/26 04:13:12;;;;;;;;;17.67;17.00;;;;;26.09;49.06;99223.47;4951289;28;9091;-72
2021/01/26 04:15:56;;;;;;;;;22.00;17.67;;;;;26.13;48.84;99218.91;4950273;28;9091;-70
2021/01/26 04:18:29;;;;;;;;;10.00;6.67;;;;;26.20;48.46;99217.09;4949268;28;9386;-70
2021/01/26 04:21:01;;;;;;;;;20.67;18.00;;;;;26.28;48.50;99207.97;4950742;28;9066;-71
2021/01/26 04:23:29;;;;;;;;;14.67;14.67;;;;;26.36;48.56;99205.44;4951408;28;10051;-70
2021/01/26 04:26:11;;;;;;;;;18.67;15.67;;;;;26.38;48.55;99200.44;4949953;28;9364;-70
2021/01/26 04:28:43;;;;;;;;;18.33;18.33;;;;;26.44;48.28;99194.38;4947956;28;8969;-72
2021/01/26 04:31:15;;;;;;;;;14.33;13.33;;;;;26.47;48.33;99185.53;4949536;28;9118;-73
2021/01/26 04:33:45;;;;;;;;;16.67;14.33;;;;;26.50;48.04;99182.09;4944551;28;8981;-72
2021/01/26 04:36:18;;;;;;;;;18.67;18.67;;;;;26.54;48.27;99185.66;4941546;28;9087;-72
2021/01/26 04:38:47;;;;;;;;;18.67;15.00;;;;;26.60;48.12;99181.50;4945757;28;9280;-73
2021/01/26 04:41:42;;;;;;;;;15.67;15.67;;;;;26.55;47.75;99157.44;4945834;28;9053;-72
2021/01/26 04:44:29;;;;;;;;;19.33;18.00;;;;;26.57;47.84;99154.38;4949817;28;9123;-73
2021/01/26 04:47:29;;;;;;;;;19.67;16.33;;;;;26.68;47.72;99158.03;4942387;28;9393;-71
2021/01/26 04:50:23;;;;;;;;;18.00;16.67;;;;;26.70;47.40;99153.03;4950446;28;9112;-71
2021/01/26 04:53:26;;;;;;;;;17.33;16.33;;;;;26.76;47.23;99150.81;4949499;28;9093;-70
2021/01/26 04:56:28;;;;;;;;;18.33;14.67;;;;;26.82;47.65;99142.00;4949097;28;9565;-70
2021/01/26 04:59:23;;;;;;;;;18.33;16.33;;;;;26.89;47.52;99128.56;4947998;28;8953;-73
2021/01/26 05:02:23;;;;;;;;;13.00;12.00;;;;;26.96;47.45;99126.00;4946028;28;8948;-70
2021/01/26 05:05:02;;;;;;;;;14.50;14.50;;;;;26.96;46.55;99117.88;4946936;28;9689;-72
2021/01/26 05:07:43;;;;;;;;;22.33;16.00;;;;;27.06;47.20;99118.38;4948100;28;8861;-72
2021/01/26 05:10:33;;;;;;;;;16.33;14.33;;;;;27.15;47.15;99110.75;4940516;29;9093;-70
2021/01/26 05:13:11;;;;;;;;;17.33;14.00;;;;;27.09;46.98;99090.56;4931905;29;9015;-72
2021/01/26 05:15:44;;;;;;;;;21.33;17.67;;;;;27.25;47.09;99093.88;4940221;28;9038;-69
2021/01/26 05:18:35;;;;;;;;;21.67;19.33;;;;;27.24;46.40;99090.38;4941631;28;9052;-71
2021/01/26 05:21:12;;;;;;;;;16.25;13.00;;;;;27.35;46.88;99090.47;4943284;28;9008;-71
2021/01/26 05:23:45;;;;;;;;;17.25;16.50;;;;;27.46;46.73;99082.47;4944096;28;8851;-70
2021/01/26 05:26:18;;;;;;;;;18.50;17.00;;;;;27.54;46.58;99081.38;4952753;28;9619;-70
2021/01/26 05:28:50;;;;;;;;;13.67;13.67;;;;;27.58;46.33;99077.56;4952493;28;8938;-67
2021/01/26 05:31:27;;;;;;;;;2.25;2.00;;;;;27.58;46.50;99065.94;4948969;28;9118;-68
2021/01/26 05:34:08;;;;;;;;;19.25;15.50;;;;;27.61;46.16;99062.53;4943496;28;8970;-68
2021/01/26 05:36:37;;;;;;;;;18.50;13.75;;;;;27.62;46.17;99055.94;4942094;28;9627;-71
2021/01/26 05:39:11;;;;;;;;;16.25;14.75;;;;;27.67;46.34;99054.84;4941886;28;8934;-67
2021/01/26 05:41:40;;;;;;;;;21.25;16.25;;;;;27.70;45.97;99046.72;4944152;28;8852;-73
2021/01/26 05:44:09;;;;;;;;;20.00;17.25;;;;;27.76;45.88;99037.09;4948606;28;8874;-69
2021/01/26 05:46:47;;;;;;;;;21.75;19.50;;;;;27.76;45.25;99023.56;4941405;28;8875;-69
2021/01/26 05:49:47;;;;;;;;;18.00;14.25;;;;;27.87;45.93;99021.72;4943109;29;8866;-68
2021/01/26 05:52:17;;;;;;;;;16.25;15.25;;;;;27.96;45.61;99018.69;4942489;28;9068;-68
2021/01/26 05:54:53;;;;;;;;;15.75;14.50;;;;;28.01;45.36;99012.13;4936904;28;8958;-71
2021/01/26 05:57:34;;;;;;;;;20.25;16.25;;;;;28.07;45.73;99013.34;4940793;29;8925;-71
2021/01/26 06:00:27;;;;;;;;;14.00;13.25;;;;;28.11;45.61;98998.66;4935039;29;8866;-71
2021/01/26 06:03:11;;;;;;;;;21.00;20.00;;;;;28.14;44.81;98991.69;4936281;29;8952;-69
2021/01/26 06:05:43;;;;;;;;;18.00;17.00;;;;;28.15;43.95;98985.91;4940665;29;8885;-69
2021/01/26 06:08:14;;;;;;;;;18.00;14.00;;;;;28.19;45.39;98961.50;4943525;28;8873;-70
2021/01/26 06:10:45;;;;;;;;;19.75;16.75;;;;;28.34;45.20;98976.75;4950511;28;8843;-68
2021/01/26 06:13:13;;;;;;;;;16.75;16.75;;;;;28.36;45.13;98971.72;4953968;28;8855;-71
2021/01/26 06:15:41;;;;;;;;;19.00;15.50;;;;;28.38;44.77;98966.69;4955134;28;8856;-68
2021/01/26 06:18:16;;;;;;;;;20.00;17.50;;;;;28.37;44.63;98954.28;4943006;28;8855;-69
2021/01/26 06:21:04;;;;;;;;;15.25;14.75;;;;;28.44;44.86;98957.03;4949074;28;8875;-70
2021/01/26 06:23:34;;;;;;;;;16.25;16.25;;;;;28.47;44.68;98939.97;4946896;28;8858;-69
2021/01/26 06:26:07;;;;;;;;;20.50;17.50;;;;;28.55;44.33;98941.56;4944380;28;9708;-71
2021/01/26 06:29:12;;;;;;;;;15.50;14.50;;;;;28.64;44.55;98930.31;4949365;28;8883;-71
2021/01/26 06:31:53;;;;;;;;;14.00;12.25;;;;;28.68;43.86;98924.91;4955880;28;8872;-70
2021/01/26 06:34:53;;;;;;;;;15.25;15.25;;;;;28.71;43.41;98914.06;4955965;28;8942;-69
2021/01/26 06:37:46;;;;;;;;;20.00;13.50;;;;;28.90;43.73;98919.19;4955977;28;8984;-69
2021/01/26 06:40:31;;;;;;;;;10.50;10.50;;;;;28.98;44.16;98914.53;4955732;28;8990;-69
2021/01/26 06:43:39;;;;;;;;;20.75;19.00;;;;;28.93;43.48;98887.78;4955251;28;8860;-70
2021/01/26 06:46:27;;;;;;;;;18.25;14.75;;;;;29.07;42.45;98897.88;4955228;28;8938;-70
2021/01/26 06:49:19;;;;;;;;;17.75;14.50;;;;;29.19;43.47;98887.41;4953336;28;8868;-70
2021/01/26 06:52:22;;;;;;;;;18.00;16.75;;;;;29.33;44.05;98883.16;4954576;28;8843;-71
2021/01/26 06:55:19;;;;;;;;;15.50;14.25;;;;;29.37;43.52;98873.84;4953655;28;8887;-70
2021/01/26 06:58:12;;;;;;;;;17.75;15.50;;;;;29.41;43.39;98874.59;4952468;28;8856;-71
2021/01/26 07:01:02;;;;;;;;;17.50;16.00;;;;;29.44;43.38;98867.66;4953688;28;8844;-70
2021/01/26 07:04:02;;;;;;;;;17.00;15.25;;;;;29.45;43.14;98859.09;4953015;28;8848;-71
2021/01/26 07:06:56;;;;;;;;;15.50;14.00;;;;;29.52;42.69;98861.03;4950285;28;8867;-72
2021/01/26 07:09:47;;;;;;;;;18.25;18.25;;;;;29.58;42.50;98854.03;4951006;28;8964;-72
2021/01/26 07:12:39;;;;;;;;;18.00;13.50;;;;;29.68;43.25;98844.31;4952631;28;8864;-71
2021/01/26 07:15:39;;;;;;;;;12.50;12.50;;;;;29.65;42.68;98842.38;4953888;28;8874;-76
2021/01/26 07:18:39;;;;;;;;;20.25;19.25;;;;;29.66;42.63;98842.00;4952342;28;8848;-75
2021/01/26 07:21:39;;;;;;;;;16.50;16.50;;;;;29.68;42.66;98836.16;4950756;28;8862;-73
2021/01/26 07:24:26;;;;;;;;;20.75;18.25;;;;;29.70;40.34;98821.00;4948648;28;8897;-71
2021/01/26 07:27:27;;;;;;;;;20.00;17.00;;;;;29.79;41.94;98821.38;4950086;28;8875;-70
2021/01/26 07:30:34;;;;;;;;;23.75;18.00;;;;;29.90;40.87;98818.63;4951737;28;9359;-70
2021/01/26 07:33:28;;;;;;;;;20.00;17.75;;;;;29.98;40.02;98809.25;4951677;28;8870;-69
2021/01/26 07:36:18;;;;;;;;;21.00;19.00;;;;;30.05;40.44;98808.47;4943297;28;8864;-70
2021/01/26 07:39:02;;;;;;;;;16.25;15.25;;;;;30.05;41.30;98806.53;4948467;28;8871;-69
2021/01/26 07:42:14;;;;;;;;;18.50;17.75;;;;;30.08;41.78;98807.69;4948007;28;8860;-69
2021/01/26 07:45:05;;;;;;;;;20.00;17.00;;;;;30.11;41.99;98796.00;4947408;28;8998;-70
2021/01/26 07:47:54;;;;;;;;;18.00;15.25;;;;;30.14;40.66;98790.53;4944707;28;8974;-70
2021/01/26 07:50:30;;;;;;;;;21.00;16.25;;;;;30.17;41.68;98791.69;4942268;28;8860;-70
2021/01/26 07:53:05;;;;;;;;;13.50;12.25;;;;;30.15;41.77;98792.09;4949136;28;8833;-70
2021/01/26 07:55:45;;;;;;;;;25.25;20.50;;;;;30.12;41.24;98775.78;4950393;28;9742;-70
2021/01/26 07:58:28;;;;;;;;;20.25;20.00;;;;;30.21;41.39;98776.13;4943887;28;8880;-70
2021/01/26 08:01:00;;;;;;;;;24.50;18.50;;;;;30.27;40.73;98785.44;4947758;28;9510;-71
2021/01/26 08:03:43;;;;;;;;;21.25;18.25;;;;;30.38;39.88;98775.25;4943562;28;9078;-71
2021/01/26 08:06:43;;;;;;;;;23.75;20.25;;;;;30.50;39.85;98774.78;4947931;28;8860;-71
2021/01/26 08:09:40;;;;;;;;;21.50;19.75;;;;;30.55;41.27;98767.38;4947478;28;8874;-71
2021/01/26 08:12:13;;;;;;;;;26.25;20.25;;;;;30.51;40.77;98756.50;4947559;28;8864;-72
2021/01/26 08:14:54;;;;;;;;;22.75;22.25;;;;;30.51;38.42;98765.44;4950199;28;8856;-71
2021/01/26 08:17:35;;;;;;;;;18.25;17.00;;;;;30.57;40.81;98767.75;4949875;28;8872;-71
2021/01/26 08:20:31;;;;;;;;;22.50;20.00;;;;;30.57;39.72;98760.34;4948728;28;8878;-71
2021/01/26 08:23:29;;;;;;;;;22.25;21.50;;;;;30.59;39.14;98760.75;4948508;28;8864;-69
2021/01/26 08:26:17;;;;;;;;;26.50;23.50;;;;;30.62;41.24;98757.25;4947834;28;8858;-70
2021/01/26 08:28:47;;;;;;;;;24.00;22.50;;;;;30.60;40.86;98765.03;4948320;28;8939;-69
2021/01/26 08:31:36;;;;;;;;;25.75;23.00;;;;;30.55;39.77;98761.94;4947834;28;8985;-70
2021/01/26 08:34:36;;;;;;;;;21.00;21.00;;;;;30.52;39.72;98753.38;4951808;28;9719;-69
2021/01/26 08:37:26;;;;;;;;;27.00;20.75;;;;;30.44;39.69;98724.66;4950936;28;8860;-69
2021/01/26 08:39:54;;;;;;;;;22.25;19.00;;;;;30.52;40.92;98739.78;4951802;28;8890;-69
2021/01/26 08:42:54;;;;;;;;;22.25;20.25;;;;;30.56;40.81;98750.66;4945693;28;8953;-71
2021/01/26 08:45:51;;;;;;;;;18.25;18.25;;;;;30.51;41.05;98749.13;4941917;28;8926;-70
2021/01/26 08:48:25;;;;;;;;;14.00;14.00;;;;;30.45;40.67;98745.28;4941635;28;8859;-71
2021/01/26 08:51:06;;;;;;;;;23.00;18.50;;;;;30.42;40.75;98748.78;4941685;28;8945;-70
2021/01/26 08:53:39;;;;;;;;;19.00;18.00;;;;;30.35;40.45;98754.28;4951080;28;8870;-70
2021/01/26 08:56:34;;;;;;;;;21.75;19.00;;;;;30.30;39.65;98751.97;4948277;28;8845;-70
2021/01/26 08:59:06;;;;;;;;;20.75;18.00;;;;;30.23;40.85;98738.41;4951352;28;8938;-72
2021/01/26 09:01:41;;;;;;;;;21.25;16.50;;;;;30.31;40.65;98748.09;4949776;28;8852;-71
2021/01/26 09:04:39;;;;;;;;;17.00;17.00;;;;;30.31;40.12;98748.09;4947474;28;8844;-71
2021/01/26 09:07:09;;;;;;;;;22.75;19.00;;;;;30.31;40.03;98750.03;4950047;28;8876;-71
2021/01/26 09:09:51;;;;;;;;;24.50;18.75;;;;;30.26;39.14;98743.06;4947411;28;8886;-71
2021/01/26 09:12:22;;;;;;;;;24.50;21.75;;;;;30.27;39.75;98741.88;4947032;28;8953;-73
2021/01/26 09:14:56;;;;;;;;;24.25;19.50;;;;;30.30;39.85;98740.31;4944602;28;8852;-73
2021/01/26 09:17:36;;;;;;;;;23.00;18.50;;;;;30.34;39.56;98749.22;4948500;28;8951;-70
2021/01/26 09:20:23;;;;;;;;;19.50;17.25;;;;;30.36;37.77;98749.59;4949474;28;8852;-73
2021/01/26 09:23:02;;;;;;;;;15.50;15.50;;;;;30.36;37.82;98741.44;4947148;28;8856;-74
2021/01/26 09:25:36;;;;;;;;;21.00;18.00;;;;;30.44;39.58;98740.22;4944726;28;8844;-71
2021/01/26 09:28:12;;;;;;;;;18.25;15.75;;;;;30.51;39.15;98743.66;4940695;28;8850;-71
2021/01/26 09:30:45;;;;;;;;;26.00;22.75;;;;;30.47;39.07;98731.25;4948840;28;8863;-70
2021/01/26 09:33:26;;;;;;;;;21.25;19.00;;;;;30.52;39.41;98739.00;4951612;28;8855;-70
2021/01/26 09:36:08;;;;;;;;;21.00;19.50;;;;;30.53;38.52;98740.56;4952220;28;8868;-73
2021/01/26 09:38:48;;;;;;;;;17.25;15.25;;;;;30.50;39.23;98736.69;4951900;28;8844;-71
2021/01/26 09:41:37;;;;;;;;;15.50;15.25;;;;;30.53;40.19;98740.56;4949159;28;9626;-71
2021/01/26 09:44:18;;;;;;;;;19.00;18.00;;;;;30.48;40.17;98741.75;4946394;28;8886;-71
2021/01/26 09:47:00;;;;;;;;;17.75;15.00;;;;;30.42;40.19;98746.06;4943017;28;8876;-71
2021/01/26 09:49:31;;;;;;;;;19.00;14.50;;;;;30.37;38.59;98741.03;4938345;28;8885;-70
2021/01/26 09:52:08;;;;;;;;;18.00;18.00;;;;;30.35;39.51;98740.66;4934353;29;8862;-74
2021/01/26 09:54:39;;;;;;;;;20.00;17.00;;;;;30.35;40.21;98740.66;4931573;29;8866;-71
2021/01/26 09:57:14;;;;;;;;;13.50;11.75;;;;;30.34;40.01;98744.56;4933130;29;8858;-72
2021/01/26 23:33:30;;;;;;;;;11.33;9.67;;;;;23.41;53.21;99075.41;4930030;23;9507;-71
2021/01/26 23:35:59;;;;;;;;;10.75;10.75;;;;;23.42;52.98;99079.69;4936031;29;9534;-73
2021/01/26 23:38:28;;;;;;;;;15.00;12.25;;;;;23.38;53.56;99082.31;4936177;29;9415;-70
2021/01/26 23:40:56;;;;;;;;;10.67;7.67;;;;;23.27;53.39;99067.75;4935755;29;9564;-68
2021/01/26 23:43:24;;;;;;;;;11.00;11.00;;;;;23.40;52.96;99090.03;4935407;29;9348;-69
2021/01/26 23:45:52;;;;;;;;;10.50;8.00;;;;;23.40;53.41;99096.16;4932156;29;9569;-69
2021/01/26 23:48:21;;;;;;;;;9.25;7.50;;;;;23.28;52.91;99080.09;4928426;29;10288;-70
2021/01/26 23:50:51;;;;;;;;;8.33;8.33;;;;;23.36;53.83;99097.22;4931386;29;10051;-70
2021/01/26 23:53:23;;;;;;;;;8.67;6.33;;;;;23.34;53.13;99105.66;4930359;29;9431;-70
2021/01/26 23:55:52;;;;;;;;;7.67;7.67;;;;;23.29;53.77;99103.19;4930817;29;9340;-69
2021/01/26 23:58:22;;;;;;;;;17.75;16.00;;;;;23.30;53.77;99110.16;4930930;29;9494;-69
